sensor_id;sensor_type;location;lat;lon;timestamp;pressure;altitude;pressure_sealevel;temperature
5571;BMP180;2808;51.240;6.794;2023-07-30T00:01:21;100515.00;;;18.00
5571;BMP180;2808;51.240;6.794;2023-07-30T00:03:48;100521.00;;;17.90
5571;BMP180;2808;51.240;6.794;2023-07-30T00:06:15;100526.00;;;17.90
5571;BMP180;2808;51.240;6.794;2023-07-30T00:08:43;100527.00;;;17.90
5571;BMP180;2808;51.240;6.794;2023-07-30T00:11:12;100527.00;;;17.80
5571;BMP180;2808;51.240;6.794;2023-07-30T00:13:40;100524.00;;;17.80
5571;BMP180;2808;51.240;6.794;2023-07-30T00:16:07;100519.00;;;17.70
5571;BMP180;2808;51.240;6.794;2023-07-30T00:18:35;100519.00;;;17.70
5571;BMP180;2808;51.240;6.794;2023-07-30T00:21:02;100512.00;;;17.70
5571;BMP180;2808;51.240;6.794;2023-07-30T00:23:30;100517.00;;;17.60
5571;BMP180;2808;51.240;6.794;2023-07-30T00:25:57;100521.00;;;17.60
5571;BMP180;2808;51.240;6.794;2023-07-30T00:28:26;100526.00;;;17.60
5571;BMP180;2808;51.240;6.794;2023-07-30T00:30:53;100521.00;;;17.60
5571;BMP180;2808;51.240;6.794;2023-07-30T00:33:21;100526.00;;;17.60
5571;BMP180;2808;51.240;6.794;2023-07-30T00:35:51;100527.00;;;17.50
5571;BMP180;2808;51.240;6.794;2023-07-30T00:38:19;100529.00;;;17.50
5571;BMP180;2808;51.240;6.794;2023-07-30T00:40:49;100535.00;;;17.40
5571;BMP180;2808;51.240;6.794;2023-07-30T00:43:17;100533.00;;;17.40
5571;BMP180;2808;51.240;6.794;2023-07-30T00:45:45;100530.00;;;17.40
5571;BMP180;2808;51.240;6.794;2023-07-30T00:48:14;100530.00;;;17.40
5571;BMP180;2808;51.240;6.794;2023-07-30T00:50:42;100524.00;;;17.40
5571;BMP180;2808;51.240;6.794;2023-07-30T00:53:10;100531.00;;;17.40
5571;BMP180;2808;51.240;6.794;2023-07-30T00:55:39;100527.00;;;17.40
5571;BMP180;2808;51.240;6.794;2023-07-30T00:58:07;100535.00;;;17.40
5571;BMP180;2808;51.240;6.794;2023-07-30T01:00:35;100526.00;;;17.30
5571;BMP180;2808;51.240;6.794;2023-07-30T01:03:04;100532.00;;;17.30
5571;BMP180;2808;51.240;6.794;2023-07-30T01:05:31;100530.00;;;17.30
5571;BMP180;2808;51.240;6.794;2023-07-30T01:07:59;100541.00;;;17.30
5571;BMP180;2808;51.240;6.794;2023-07-30T01:10:27;100539.00;;;17.30
5571;BMP180;2808;51.240;6.794;2023-07-30T01:12:58;100539.00;;;17.40
5571;BMP180;2808;51.240;6.794;2023-07-30T01:15:27;100530.00;;;17.40
5571;BMP180;2808;51.240;6.794;2023-07-30T01:17:54;100539.00;;;17.40
5571;BMP180;2808;51.240;6.794;2023-07-30T01:20:23;100543.00;;;17.50
5571;BMP180;2808;51.240;6.794;2023-07-30T01:22:52;100543.00;;;17.50
5571;BMP180;2808;51.240;6.794;2023-07-30T01:25:21;100542.00;;;17.50
5571;BMP180;2808;51.240;6.794;2023-07-30T01:27:54;100545.00;;;17.50
5571;BMP180;2808;51.240;6.794;2023-07-30T01:30:25;100545.00;;;17.60
5571;BMP180;2808;51.240;6.794;2023-07-30T01:32:53;100547.00;;;17.60
5571;BMP180;2808;51.240;6.794;2023-07-30T01:35:24;100551.00;;;17.60
5571;BMP180;2808;51.240;6.794;2023-07-30T01:37:54;100558.00;;;17.70
5571;BMP180;2808;51.240;6.794;2023-07-30T01:40:23;100555.00;;;17.70
5571;BMP180;2808;51.240;6.794;2023-07-30T01:42:50;100556.00;;;17.70
5571;BMP180;2808;51.240;6.794;2023-07-30T01:45:18;100561.00;;;17.70
5571;BMP180;2808;51.240;6.794;2023-07-30T01:47:45;100564.00;;;17.70
5571;BMP180;2808;51.240;6.794;2023-07-30T01:50:13;100564.00;;;17.70
5571;BMP180;2808;51.240;6.794;2023-07-30T01:52:40;100561.00;;;17.70
5571;BMP180;2808;51.240;6.794;2023-07-30T01:55:09;100565.00;;;17.70
5571;BMP180;2808;51.240;6.794;2023-07-30T01:57:37;100557.00;;;17.60
5571;BMP180;2808;51.240;6.794;2023-07-30T02:00:05;100565.00;;;17.60
5571;BMP180;2808;51.240;6.794;2023-07-30T02:02:33;100569.00;;;17.50
5571;BMP180;2808;51.240;6.794;2023-07-30T02:05:01;100567.00;;;17.50
5571;BMP180;2808;51.240;6.794;2023-07-30T02:07:29;100571.00;;;17.40
5571;BMP180;2808;51.240;6.794;2023-07-30T02:09:57;100570.00;;;17.40
5571;BMP180;2808;51.240;6.794;2023-07-30T02:12:25;100565.00;;;17.30
5571;BMP180;2808;51.240;6.794;2023-07-30T02:14:53;100566.00;;;17.20
5571;BMP180;2808;51.240;6.794;2023-07-30T02:17:20;100562.00;;;17.10
5571;BMP180;2808;51.240;6.794;2023-07-30T02:19:48;100558.00;;;17.10
5571;BMP180;2808;51.240;6.794;2023-07-30T02:22:15;100568.00;;;17.10
5571;BMP180;2808;51.240;6.794;2023-07-30T02:24:43;100561.00;;;17.10
5571;BMP180;2808;51.240;6.794;2023-07-30T02:27:10;100569.00;;;17.10
5571;BMP180;2808;51.240;6.794;2023-07-30T02:29:39;100553.00;;;17.10
5571;BMP180;2808;51.240;6.794;2023-07-30T02:32:07;100558.00;;;17.10
5571;BMP180;2808;51.240;6.794;2023-07-30T02:34:35;100558.00;;;17.00
5571;BMP180;2808;51.240;6.794;2023-07-30T02:37:02;100562.00;;;17.00
5571;BMP180;2808;51.240;6.794;2023-07-30T02:39:30;100559.00;;;16.90
5571;BMP180;2808;51.240;6.794;2023-07-30T02:41:57;100562.00;;;16.90
5571;BMP180;2808;51.240;6.794;2023-07-30T02:44:28;100565.00;;;16.90
5571;BMP180;2808;51.240;6.794;2023-07-30T02:46:57;100567.00;;;16.90
5571;BMP180;2808;51.240;6.794;2023-07-30T02:49:24;100562.00;;;16.80
5571;BMP180;2808;51.240;6.794;2023-07-30T02:51:52;100566.00;;;16.80
5571;BMP180;2808;51.240;6.794;2023-07-30T02:54:19;100568.00;;;16.80
5571;BMP180;2808;51.240;6.794;2023-07-30T02:56:48;100571.00;;;16.80
5571;BMP180;2808;51.240;6.794;2023-07-30T02:59:15;100575.00;;;16.80
5571;BMP180;2808;51.240;6.794;2023-07-30T03:01:43;100576.00;;;16.70
5571;BMP180;2808;51.240;6.794;2023-07-30T03:04:12;100576.00;;;16.70
5571;BMP180;2808;51.240;6.794;2023-07-30T03:06:39;100574.00;;;16.70
5571;BMP180;2808;51.240;6.794;2023-07-30T03:09:07;100577.00;;;16.70
5571;BMP180;2808;51.240;6.794;2023-07-30T03:11:34;100583.00;;;16.70
5571;BMP180;2808;51.240;6.794;2023-07-30T03:14:02;100588.00;;;16.60
5571;BMP180;2808;51.240;6.794;2023-07-30T03:16:29;100586.00;;;16.60
5571;BMP180;2808;51.240;6.794;2023-07-30T03:18:57;100588.00;;;16.50
5571;BMP180;2808;51.240;6.794;2023-07-30T03:21:26;100583.00;;;16.50
5571;BMP180;2808;51.240;6.794;2023-07-30T03:23:53;100583.00;;;16.50
5571;BMP180;2808;51.240;6.794;2023-07-30T03:26:20;100577.00;;;16.40
5571;BMP180;2808;51.240;6.794;2023-07-30T03:28:48;100586.00;;;16.40
5571;BMP180;2808;51.240;6.794;2023-07-30T03:31:18;100589.00;;;16.40
5571;BMP180;2808;51.240;6.794;2023-07-30T03:33:46;100595.00;;;16.40
5571;BMP180;2808;51.240;6.794;2023-07-30T03:36:14;100602.00;;;16.30
5571;BMP180;2808;51.240;6.794;2023-07-30T03:38:44;100592.00;;;16.30
5571;BMP180;2808;51.240;6.794;2023-07-30T03:41:11;100592.00;;;16.30
5571;BMP180;2808;51.240;6.794;2023-07-30T03:43:39;100597.00;;;16.30
5571;BMP180;2808;51.240;6.794;2023-07-30T03:46:06;100596.00;;;16.30
5571;BMP180;2808;51.240;6.794;2023-07-30T03:48:34;100607.00;;;16.40
5571;BMP180;2808;51.240;6.794;2023-07-30T03:51:01;100602.00;;;16.40
5571;BMP180;2808;51.240;6.794;2023-07-30T03:53:29;100600.00;;;16.50
5571;BMP180;2808;51.240;6.794;2023-07-30T03:55:58;100604.00;;;16.50
5571;BMP180;2808;51.240;6.794;2023-07-30T03:58:25;100609.00;;;16.50
5571;BMP180;2808;51.240;6.794;2023-07-30T04:00:53;100592.00;;;16.60
5571;BMP180;2808;51.240;6.794;2023-07-30T04:03:20;100599.00;;;16.60
5571;BMP180;2808;51.240;6.794;2023-07-30T04:05:48;100601.00;;;16.70
5571;BMP180;2808;51.240;6.794;2023-07-30T04:08:16;100604.00;;;16.80
5571;BMP180;2808;51.240;6.794;2023-07-30T04:10:44;100605.00;;;16.90
5571;BMP180;2808;51.240;6.794;2023-07-30T04:13:16;100605.00;;;17.00
5571;BMP180;2808;51.240;6.794;2023-07-30T04:15:43;100581.00;;;17.10
5571;BMP180;2808;51.240;6.794;2023-07-30T04:18:11;100589.00;;;17.10
5571;BMP180;2808;51.240;6.794;2023-07-30T04:20:38;100596.00;;;17.20
5571;BMP180;2808;51.240;6.794;2023-07-30T04:23:06;100602.00;;;17.30
5571;BMP180;2808;51.240;6.794;2023-07-30T04:25:33;100601.00;;;17.30
5571;BMP180;2808;51.240;6.794;2023-07-30T04:28:01;100600.00;;;17.40
5571;BMP180;2808;51.240;6.794;2023-07-30T04:30:30;100601.00;;;17.40
5571;BMP180;2808;51.240;6.794;2023-07-30T04:32:57;100612.00;;;17.30
5571;BMP180;2808;51.240;6.794;2023-07-30T04:35:24;100614.00;;;17.30
5571;BMP180;2808;51.240;6.794;2023-07-30T04:37:52;100607.00;;;17.30
5571;BMP180;2808;51.240;6.794;2023-07-30T04:40:19;100614.00;;;17.30
5571;BMP180;2808;51.240;6.794;2023-07-30T04:42:47;100612.00;;;17.20
5571;BMP180;2808;51.240;6.794;2023-07-30T04:45:14;100622.00;;;17.20
5571;BMP180;2808;51.240;6.794;2023-07-30T04:47:43;100620.00;;;17.20
5571;BMP180;2808;51.240;6.794;2023-07-30T04:50:10;100615.00;;;17.20
5571;BMP180;2808;51.240;6.794;2023-07-30T04:52:39;100622.00;;;17.10
5571;BMP180;2808;51.240;6.794;2023-07-30T04:55:07;100620.00;;;17.10
5571;BMP180;2808;51.240;6.794;2023-07-30T04:57:35;100620.00;;;17.00
5571;BMP180;2808;51.240;6.794;2023-07-30T05:00:03;100618.00;;;17.00
5571;BMP180;2808;51.240;6.794;2023-07-30T05:02:32;100622.00;;;16.90
5571;BMP180;2808;51.240;6.794;2023-07-30T05:05:00;100627.00;;;17.00
5571;BMP180;2808;51.240;6.794;2023-07-30T05:07:28;100631.00;;;17.00
5571;BMP180;2808;51.240;6.794;2023-07-30T05:09:55;100623.00;;;17.00
5571;BMP180;2808;51.240;6.794;2023-07-30T05:12:23;100617.00;;;17.00
5571;BMP180;2808;51.240;6.794;2023-07-30T05:14:51;100617.00;;;17.10
5571;BMP180;2808;51.240;6.794;2023-07-30T05:17:19;100623.00;;;17.10
5571;BMP180;2808;51.240;6.794;2023-07-30T05:19:46;100620.00;;;17.00
5571;BMP180;2808;51.240;6.794;2023-07-30T05:22:15;100621.00;;;17.00
5571;BMP180;2808;51.240;6.794;2023-07-30T05:24:42;100620.00;;;17.00
5571;BMP180;2808;51.240;6.794;2023-07-30T05:27:16;100624.00;;;16.90
5571;BMP180;2808;51.240;6.794;2023-07-30T05:29:43;100630.00;;;16.90
5571;BMP180;2808;51.240;6.794;2023-07-30T05:32:10;100629.00;;;16.80
5571;BMP180;2808;51.240;6.794;2023-07-30T05:34:38;100624.00;;;16.70
5571;BMP180;2808;51.240;6.794;2023-07-30T05:37:06;100622.00;;;16.80
5571;BMP180;2808;51.240;6.794;2023-07-30T05:39:35;100633.00;;;16.70
5571;BMP180;2808;51.240;6.794;2023-07-30T05:42:05;100622.00;;;16.70
5571;BMP180;2808;51.240;6.794;2023-07-30T05:44:33;100627.00;;;16.70
5571;BMP180;2808;51.240;6.794;2023-07-30T05:47:00;100637.00;;;16.80
5571;BMP180;2808;51.240;6.794;2023-07-30T05:49:28;100638.00;;;16.80
5571;BMP180;2808;51.240;6.794;2023-07-30T05:51:55;100632.00;;;16.80
5571;BMP180;2808;51.240;6.794;2023-07-30T05:54:23;100638.00;;;16.80
5571;BMP180;2808;51.240;6.794;2023-07-30T05:56:54;100628.00;;;16.80
5571;BMP180;2808;51.240;6.794;2023-07-30T05:59:21;100634.00;;;16.90
5571;BMP180;2808;51.240;6.794;2023-07-30T06:01:50;100634.00;;;17.00
5571;BMP180;2808;51.240;6.794;2023-07-30T06:04:17;100639.00;;;16.90
5571;BMP180;2808;51.240;6.794;2023-07-30T06:06:45;100645.00;;;16.90
5571;BMP180;2808;51.240;6.794;2023-07-30T06:09:16;100638.00;;;16.90
5571;BMP180;2808;51.240;6.794;2023-07-30T06:11:44;100643.00;;;17.00
5571;BMP180;2808;51.240;6.794;2023-07-30T06:14:13;100645.00;;;17.10
5571;BMP180;2808;51.240;6.794;2023-07-30T06:16:50;100646.00;;;17.20
5571;BMP180;2808;51.240;6.794;2023-07-30T06:19:18;100637.00;;;17.30
5571;BMP180;2808;51.240;6.794;2023-07-30T06:21:46;100649.00;;;17.40
5571;BMP180;2808;51.240;6.794;2023-07-30T06:24:13;100646.00;;;17.30
5571;BMP180;2808;51.240;6.794;2023-07-30T06:26:41;100655.00;;;17.20
5571;BMP180;2808;51.240;6.794;2023-07-30T06:29:09;100656.00;;;17.20
5571;BMP180;2808;51.240;6.794;2023-07-30T06:31:38;100650.00;;;17.30
5571;BMP180;2808;51.240;6.794;2023-07-30T06:34:36;100660.00;;;17.30
5571;BMP180;2808;51.240;6.794;2023-07-30T06:37:21;100655.00;;;17.30
5571;BMP180;2808;51.240;6.794;2023-07-30T06:39:48;100646.00;;;17.30
5571;BMP180;2808;51.240;6.794;2023-07-30T06:42:19;100657.00;;;17.40
5571;BMP180;2808;51.240;6.794;2023-07-30T06:44:54;100646.00;;;17.60
5571;BMP180;2808;51.240;6.794;2023-07-30T06:51:11;100637.00;;;17.80
5571;BMP180;2808;51.240;6.794;2023-07-30T06:53:43;100635.00;;;17.90
5571;BMP180;2808;51.240;6.794;2023-07-30T06:56:14;100648.00;;;18.00
5571;BMP180;2808;51.240;6.794;2023-07-30T06:58:42;100655.00;;;18.00
5571;BMP180;2808;51.240;6.794;2023-07-30T07:01:09;100654.00;;;18.10
5571;BMP180;2808;51.240;6.794;2023-07-30T07:03:37;100658.00;;;18.10
5571;BMP180;2808;51.240;6.794;2023-07-30T07:06:06;100652.00;;;18.10
5571;BMP180;2808;51.240;6.794;2023-07-30T07:08:34;100657.00;;;18.00
5571;BMP180;2808;51.240;6.794;2023-07-30T07:11:03;100661.00;;;18.10
5571;BMP180;2808;51.240;6.794;2023-07-30T07:13:31;100661.00;;;18.10
5571;BMP180;2808;51.240;6.794;2023-07-30T07:15:58;100659.00;;;18.20
5571;BMP180;2808;51.240;6.794;2023-07-30T07:18:26;100667.00;;;18.30
5571;BMP180;2808;51.240;6.794;2023-07-30T07:20:53;100668.00;;;18.40
5571;BMP180;2808;51.240;6.794;2023-07-30T07:23:22;100677.00;;;18.40
5571;BMP180;2808;51.240;6.794;2023-07-30T07:25:50;100671.00;;;18.40
5571;BMP180;2808;51.240;6.794;2023-07-30T07:28:18;100673.00;;;18.40
5571;BMP180;2808;51.240;6.794;2023-07-30T07:30:46;100680.00;;;18.40
5571;BMP180;2808;51.240;6.794;2023-07-30T07:33:14;100674.00;;;18.40
5571;BMP180;2808;51.240;6.794;2023-07-30T07:35:41;100676.00;;;18.40
5571;BMP180;2808;51.240;6.794;2023-07-30T07:38:09;100675.00;;;18.50
5571;BMP180;2808;51.240;6.794;2023-07-30T07:40:38;100678.00;;;18.60
5571;BMP180;2808;51.240;6.794;2023-07-30T07:43:06;100676.00;;;18.70
5571;BMP180;2808;51.240;6.794;2023-07-30T07:45:34;100675.00;;;18.90
5571;BMP180;2808;51.240;6.794;2023-07-30T07:48:02;100687.00;;;18.90
5571;BMP180;2808;51.240;6.794;2023-07-30T07:50:30;100693.00;;;19.10
5571;BMP180;2808;51.240;6.794;2023-07-30T07:52:57;100687.00;;;19.20
5571;BMP180;2808;51.240;6.794;2023-07-30T07:55:29;100690.00;;;19.20
5571;BMP180;2808;51.240;6.794;2023-07-30T07:57:58;100692.00;;;19.20
5571;BMP180;2808;51.240;6.794;2023-07-30T08:00:26;100690.00;;;19.20
5571;BMP180;2808;51.240;6.794;2023-07-30T08:02:54;100697.00;;;19.20
5571;BMP180;2808;51.240;6.794;2023-07-30T08:05:23;100693.00;;;19.20
5571;BMP180;2808;51.240;6.794;2023-07-30T08:07:53;100693.00;;;19.20
5571;BMP180;2808;51.240;6.794;2023-07-30T08:10:21;100692.00;;;19.20
5571;BMP180;2808;51.240;6.794;2023-07-30T08:12:48;100695.00;;;19.30
5571;BMP180;2808;51.240;6.794;2023-07-30T08:15:18;100704.00;;;19.30
5571;BMP180;2808;51.240;6.794;2023-07-30T08:17:46;100697.00;;;19.30
5571;BMP180;2808;51.240;6.794;2023-07-30T08:20:13;100695.00;;;19.30
5571;BMP180;2808;51.240;6.794;2023-07-30T08:22:44;100690.00;;;19.30
5571;BMP180;2808;51.240;6.794;2023-07-30T08:25:19;100693.00;;;19.20
5571;BMP180;2808;51.240;6.794;2023-07-30T08:27:47;100688.00;;;19.20
5571;BMP180;2808;51.240;6.794;2023-07-30T08:30:16;100691.00;;;19.30
5571;BMP180;2808;51.240;6.794;2023-07-30T08:32:43;100686.00;;;19.50
5571;BMP180;2808;51.240;6.794;2023-07-30T08:35:16;100686.00;;;19.70
5571;BMP180;2808;51.240;6.794;2023-07-30T08:37:44;100697.00;;;19.90
5571;BMP180;2808;51.240;6.794;2023-07-30T08:40:13;100692.00;;;20.10
5571;BMP180;2808;51.240;6.794;2023-07-30T08:42:46;100694.00;;;20.30
5571;BMP180;2808;51.240;6.794;2023-07-30T08:45:17;100695.00;;;20.60
5571;BMP180;2808;51.240;6.794;2023-07-30T08:47:46;100702.00;;;20.70
5571;BMP180;2808;51.240;6.794;2023-07-30T08:50:14;100691.00;;;20.80
5571;BMP180;2808;51.240;6.794;2023-07-30T08:52:42;100699.00;;;20.70
5571;BMP180;2808;51.240;6.794;2023-07-30T08:55:11;100692.00;;;20.80
5571;BMP180;2808;51.240;6.794;2023-07-30T08:57:39;100707.00;;;20.80
5571;BMP180;2808;51.240;6.794;2023-07-30T09:00:09;100699.00;;;20.80
5571;BMP180;2808;51.240;6.794;2023-07-30T09:02:43;100712.00;;;20.70
5571;BMP180;2808;51.240;6.794;2023-07-30T09:05:11;100720.00;;;20.70
5571;BMP180;2808;51.240;6.794;2023-07-30T09:07:39;100716.00;;;20.90
5571;BMP180;2808;51.240;6.794;2023-07-30T09:10:09;100717.00;;;21.10
5571;BMP180;2808;51.240;6.794;2023-07-30T09:12:36;100711.00;;;21.40
5571;BMP180;2808;51.240;6.794;2023-07-30T09:15:05;100725.00;;;21.70
5571;BMP180;2808;51.240;6.794;2023-07-30T09:17:35;100728.00;;;21.80
5571;BMP180;2808;51.240;6.794;2023-07-30T09:20:06;100722.00;;;21.90
5571;BMP180;2808;51.240;6.794;2023-07-30T09:22:35;100714.00;;;22.00
5571;BMP180;2808;51.240;6.794;2023-07-30T09:25:07;100716.00;;;22.00
5571;BMP180;2808;51.240;6.794;2023-07-30T09:27:35;100717.00;;;22.10
5571;BMP180;2808;51.240;6.794;2023-07-30T09:30:04;100725.00;;;22.20
5571;BMP180;2808;51.240;6.794;2023-07-30T09:32:34;100733.00;;;22.30
5571;BMP180;2808;51.240;6.794;2023-07-30T09:35:07;100729.00;;;22.40
5571;BMP180;2808;51.240;6.794;2023-07-30T09:37:37;100737.00;;;22.50
5571;BMP180;2808;51.240;6.794;2023-07-30T09:40:06;100737.00;;;22.70
5571;BMP180;2808;51.240;6.794;2023-07-30T09:42:37;100736.00;;;22.60
5571;BMP180;2808;51.240;6.794;2023-07-30T09:45:06;100736.00;;;22.50
5571;BMP180;2808;51.240;6.794;2023-07-30T09:47:37;100742.00;;;22.50
5571;BMP180;2808;51.240;6.794;2023-07-30T09:50:10;100738.00;;;22.50
5571;BMP180;2808;51.240;6.794;2023-07-30T09:52:39;100734.00;;;22.50
5571;BMP180;2808;51.240;6.794;2023-07-30T09:55:08;100731.00;;;22.80
5571;BMP180;2808;51.240;6.794;2023-07-30T09:57:35;100740.00;;;23.10
5571;BMP180;2808;51.240;6.794;2023-07-30T10:00:03;100745.00;;;23.20
5571;BMP180;2808;51.240;6.794;2023-07-30T10:02:33;100724.00;;;23.30
5571;BMP180;2808;51.240;6.794;2023-07-30T10:08:29;100733.00;;;23.00
5571;BMP180;2808;51.240;6.794;2023-07-30T10:11:08;100733.00;;;22.60
5571;BMP180;2808;51.240;6.794;2023-07-30T10:13:49;100735.00;;;22.50
5571;BMP180;2808;51.240;6.794;2023-07-30T10:16:25;100742.00;;;22.50
5571;BMP180;2808;51.240;6.794;2023-07-30T10:19:01;100733.00;;;22.70
5571;BMP180;2808;51.240;6.794;2023-07-30T10:21:43;100732.00;;;22.60
5571;BMP180;2808;51.240;6.794;2023-07-30T10:24:21;100729.00;;;22.80
5571;BMP180;2808;51.240;6.794;2023-07-30T10:27:00;100726.00;;;23.20
5571;BMP180;2808;51.240;6.794;2023-07-30T10:29:43;100729.00;;;23.20
5571;BMP180;2808;51.240;6.794;2023-07-30T10:32:11;100733.00;;;23.20
5571;BMP180;2808;51.240;6.794;2023-07-30T10:34:45;100729.00;;;23.20
5571;BMP180;2808;51.240;6.794;2023-07-30T10:37:18;100736.00;;;23.10
5571;BMP180;2808;51.240;6.794;2023-07-30T10:39:49;100731.00;;;23.10
5571;BMP180;2808;51.240;6.794;2023-07-30T10:42:33;100730.00;;;23.20
5571;BMP180;2808;51.240;6.794;2023-07-30T10:45:19;100733.00;;;23.20
5571;BMP180;2808;51.240;6.794;2023-07-30T10:47:54;100729.00;;;23.30
5571;BMP180;2808;51.240;6.794;2023-07-30T10:50:30;100718.00;;;23.30
5571;BMP180;2808;51.240;6.794;2023-07-30T10:52:58;100724.00;;;23.30
5571;BMP180;2808;51.240;6.794;2023-07-30T10:55:31;100726.00;;;23.50
5571;BMP180;2808;51.240;6.794;2023-07-30T10:58:00;100730.00;;;23.70
5571;BMP180;2808;51.240;6.794;2023-07-30T11:00:28;100722.00;;;23.60
5571;BMP180;2808;51.240;6.794;2023-07-30T11:02:56;100719.00;;;23.60
5571;BMP180;2808;51.240;6.794;2023-07-30T11:05:26;100719.00;;;23.50
5571;BMP180;2808;51.240;6.794;2023-07-30T11:07:54;100723.00;;;23.50
5571;BMP180;2808;51.240;6.794;2023-07-30T11:10:24;100734.00;;;23.80
5571;BMP180;2808;51.240;6.794;2023-07-30T11:12:58;100729.00;;;23.70
5571;BMP180;2808;51.240;6.794;2023-07-30T11:15:26;100736.00;;;23.60
5571;BMP180;2808;51.240;6.794;2023-07-30T11:17:53;100723.00;;;23.50
5571;BMP180;2808;51.240;6.794;2023-07-30T11:20:25;100735.00;;;23.50
5571;BMP180;2808;51.240;6.794;2023-07-30T11:22:53;100732.00;;;23.60
5571;BMP180;2808;51.240;6.794;2023-07-30T11:25:21;100734.00;;;23.60
5571;BMP180;2808;51.240;6.794;2023-07-30T11:27:49;100736.00;;;23.70
5571;BMP180;2808;51.240;6.794;2023-07-30T11:30:18;100752.00;;;23.60
5571;BMP180;2808;51.240;6.794;2023-07-30T11:32:48;100742.00;;;23.50
5571;BMP180;2808;51.240;6.794;2023-07-30T11:35:22;100757.00;;;23.50
5571;BMP180;2808;51.240;6.794;2023-07-30T11:37:55;100754.00;;;23.60
5571;BMP180;2808;51.240;6.794;2023-07-30T11:40:25;100739.00;;;23.70
5571;BMP180;2808;51.240;6.794;2023-07-30T11:43:04;100753.00;;;23.60
5571;BMP180;2808;51.240;6.794;2023-07-30T11:45:36;100750.00;;;23.50
5571;BMP180;2808;51.240;6.794;2023-07-30T11:48:07;100746.00;;;23.40
5571;BMP180;2808;51.240;6.794;2023-07-30T11:50:49;100754.00;;;23.60
5571;BMP180;2808;51.240;6.794;2023-07-30T11:53:18;100764.00;;;23.80
5571;BMP180;2808;51.240;6.794;2023-07-30T11:58:45;100767.00;;;23.60
5571;BMP180;2808;51.240;6.794;2023-07-30T12:01:14;100763.00;;;23.70
5571;BMP180;2808;51.240;6.794;2023-07-30T12:03:42;100768.00;;;23.80
5571;BMP180;2808;51.240;6.794;2023-07-30T12:06:13;100767.00;;;23.80
5571;BMP180;2808;51.240;6.794;2023-07-30T12:08:40;100774.00;;;23.60
5571;BMP180;2808;51.240;6.794;2023-07-30T12:11:09;100774.00;;;23.50
5571;BMP180;2808;51.240;6.794;2023-07-30T12:13:48;100779.00;;;23.40
5571;BMP180;2808;51.240;6.794;2023-07-30T12:16:18;100795.00;;;23.30
5571;BMP180;2808;51.240;6.794;2023-07-30T12:18:47;100804.00;;;23.40
5571;BMP180;2808;51.240;6.794;2023-07-30T12:21:15;100807.00;;;23.40
5571;BMP180;2808;51.240;6.794;2023-07-30T12:23:44;100792.00;;;23.50
5571;BMP180;2808;51.240;6.794;2023-07-30T12:26:31;100799.00;;;23.50
5571;BMP180;2808;51.240;6.794;2023-07-30T12:29:18;100805.00;;;23.30
5571;BMP180;2808;51.240;6.794;2023-07-30T12:32:12;100796.00;;;23.30
5571;BMP180;2808;51.240;6.794;2023-07-30T12:34:43;100803.00;;;23.30
5571;BMP180;2808;51.240;6.794;2023-07-30T12:37:12;100793.00;;;23.40
5571;BMP180;2808;51.240;6.794;2023-07-30T12:39:50;100799.00;;;23.20
5571;BMP180;2808;51.240;6.794;2023-07-30T12:42:21;100798.00;;;23.10
5571;BMP180;2808;51.240;6.794;2023-07-30T12:44:50;100794.00;;;23.00
5571;BMP180;2808;51.240;6.794;2023-07-30T12:47:19;100807.00;;;23.00
5571;BMP180;2808;51.240;6.794;2023-07-30T12:49:51;100790.00;;;22.90
5571;BMP180;2808;51.240;6.794;2023-07-30T12:52:21;100785.00;;;22.70
5571;BMP180;2808;51.240;6.794;2023-07-30T12:55:03;100786.00;;;22.30
5571;BMP180;2808;51.240;6.794;2023-07-30T12:57:38;100789.00;;;22.10
5571;BMP180;2808;51.240;6.794;2023-07-30T13:00:10;100791.00;;;22.10
5571;BMP180;2808;51.240;6.794;2023-07-30T13:02:39;100786.00;;;22.10
5571;BMP180;2808;51.240;6.794;2023-07-30T13:05:12;100783.00;;;22.20
5571;BMP180;2808;51.240;6.794;2023-07-30T13:07:47;100781.00;;;22.40
5571;BMP180;2808;51.240;6.794;2023-07-30T13:10:14;100786.00;;;22.30
5571;BMP180;2808;51.240;6.794;2023-07-30T13:12:42;100795.00;;;22.30
5571;BMP180;2808;51.240;6.794;2023-07-30T13:15:09;100791.00;;;22.40
5571;BMP180;2808;51.240;6.794;2023-07-30T13:17:38;100792.00;;;22.30
5571;BMP180;2808;51.240;6.794;2023-07-30T13:20:09;100798.00;;;22.30
5571;BMP180;2808;51.240;6.794;2023-07-30T13:22:37;100797.00;;;22.20
5571;BMP180;2808;51.240;6.794;2023-07-30T13:25:05;100806.00;;;22.20
5571;BMP180;2808;51.240;6.794;2023-07-30T13:27:32;100806.00;;;22.10
5571;BMP180;2808;51.240;6.794;2023-07-30T13:29:59;100815.00;;;22.10
5571;BMP180;2808;51.240;6.794;2023-07-30T13:32:27;100811.00;;;22.10
5571;BMP180;2808;51.240;6.794;2023-07-30T13:34:56;100817.00;;;22.10
5571;BMP180;2808;51.240;6.794;2023-07-30T13:37:23;100820.00;;;22.20
5571;BMP180;2808;51.240;6.794;2023-07-30T13:39:51;100816.00;;;22.20
5571;BMP180;2808;51.240;6.794;2023-07-30T13:42:18;100822.00;;;22.30
5571;BMP180;2808;51.240;6.794;2023-07-30T13:44:46;100814.00;;;22.30
5571;BMP180;2808;51.240;6.794;2023-07-30T13:47:13;100831.00;;;22.40
5571;BMP180;2808;51.240;6.794;2023-07-30T13:49:41;100819.00;;;22.60
5571;BMP180;2808;51.240;6.794;2023-07-30T13:52:11;100810.00;;;22.70
5571;BMP180;2808;51.240;6.794;2023-07-30T13:54:39;100809.00;;;22.70
5571;BMP180;2808;51.240;6.794;2023-07-30T13:57:08;100807.00;;;22.90
5571;BMP180;2808;51.240;6.794;2023-07-30T13:59:36;100802.00;;;23.10
5571;BMP180;2808;51.240;6.794;2023-07-30T14:02:06;100799.00;;;23.30
5571;BMP180;2808;51.240;6.794;2023-07-30T14:04:36;100804.00;;;23.40
5571;BMP180;2808;51.240;6.794;2023-07-30T14:07:04;100790.00;;;23.40
5571;BMP180;2808;51.240;6.794;2023-07-30T14:09:34;100795.00;;;23.50
5571;BMP180;2808;51.240;6.794;2023-07-30T14:12:04;100792.00;;;23.50
5571;BMP180;2808;51.240;6.794;2023-07-30T14:14:36;100804.00;;;23.60
5571;BMP180;2808;51.240;6.794;2023-07-30T14:17:03;100805.00;;;23.60
5571;BMP180;2808;51.240;6.794;2023-07-30T14:19:33;100797.00;;;23.60
5571;BMP180;2808;51.240;6.794;2023-07-30T14:22:07;100802.00;;;23.50
5571;BMP180;2808;51.240;6.794;2023-07-30T14:24:36;100803.00;;;23.60
5571;BMP180;2808;51.240;6.794;2023-07-30T14:27:05;100788.00;;;23.50
5571;BMP180;2808;51.240;6.794;2023-07-30T14:29:32;100790.00;;;23.30
5571;BMP180;2808;51.240;6.794;2023-07-30T14:32:00;100788.00;;;23.30
5571;BMP180;2808;51.240;6.794;2023-07-30T14:34:37;100795.00;;;23.30
5571;BMP180;2808;51.240;6.794;2023-07-30T14:37:08;100797.00;;;23.20
5571;BMP180;2808;51.240;6.794;2023-07-30T14:39:37;100803.00;;;23.20
5571;BMP180;2808;51.240;6.794;2023-07-30T14:42:06;100784.00;;;23.30
5571;BMP180;2808;51.240;6.794;2023-07-30T14:44:34;100795.00;;;23.30